createdAt,value
2023-07-11T00:00:51.534Z,21.07
2023-07-11T00:03:18.092Z,21.03
2023-07-11T00:05:44.718Z,20.98
2023-07-11T00:08:11.256Z,20.94
2023-07-11T00:10:37.754Z,20.92
2023-07-11T00:13:04.213Z,20.89
2023-07-11T00:15:30.759Z,20.87
2023-07-11T00:17:57.304Z,20.87
2023-07-11T00:20:24.008Z,20.84
2023-07-11T00:22:50.743Z,20.82
2023-07-11T00:25:17.279Z,20.81
2023-07-11T00:27:43.826Z,20.79
2023-07-11T00:30:10.902Z,20.73
2023-07-11T00:32:37.495Z,20.73
2023-07-11T00:35:04.367Z,20.71
2023-07-11T00:37:31.070Z,20.66
2023-07-11T00:39:57.533Z,20.67
2023-07-11T00:42:25.639Z,20.65
2023-07-11T00:44:59.087Z,20.62
2023-07-11T00:47:27.740Z,20.59
2023-07-11T00:49:59.021Z,20.52
2023-07-11T00:52:27.897Z,20.50
2023-07-11T00:54:58.200Z,20.46
2023-07-11T00:57:27.757Z,20.48
2023-07-11T00:59:54.395Z,20.47
2023-07-11T01:02:26.799Z,20.45
2023-07-11T01:04:53.499Z,20.46
2023-07-11T01:07:26.164Z,20.44
2023-07-11T01:09:53.019Z,20.40
2023-07-11T01:12:20.266Z,20.23
2023-07-11T01:14:49.227Z,20.18
2023-07-11T01:17:28.870Z,20.15
2023-07-11T01:19:56.578Z,20.17
2023-07-11T01:22:24.570Z,20.16
2023-07-11T01:24:52.182Z,20.18
2023-07-11T01:27:21.664Z,20.13
2023-07-11T01:29:50.191Z,20.11
2023-07-11T01:32:17.920Z,20.07
2023-07-11T01:34:44.599Z,20.02
2023-07-11T01:37:11.387Z,20.02
2023-07-11T01:39:38.181Z,20.01
2023-07-11T01:42:05.306Z,19.96
2023-07-11T01:44:32.338Z,19.90
2023-07-11T01:47:03.368Z,19.79
2023-07-11T01:49:30.370Z,19.80
2023-07-11T01:52:23.996Z,19.82
2023-07-11T01:54:51.662Z,19.84
2023-07-11T01:57:18.610Z,19.84
2023-07-11T01:59:47.419Z,19.85
2023-07-11T02:02:13.983Z,19.87
2023-07-11T02:04:40.516Z,19.88
2023-07-11T02:07:07.460Z,19.88
2023-07-11T02:09:34.356Z,19.86
2023-07-11T02:12:00.803Z,19.85
2023-07-11T02:14:27.280Z,19.82
2023-07-11T02:16:54.535Z,19.81
2023-07-11T02:19:23.077Z,19.79
2023-07-11T02:21:50.000Z,19.73
2023-07-11T02:24:18.288Z,19.70
2023-07-11T02:26:45.396Z,19.72
2023-07-11T02:29:12.040Z,19.73
2023-07-11T02:31:40.096Z,19.72
2023-07-11T02:34:06.730Z,19.71
2023-07-11T02:36:33.575Z,19.64
2023-07-11T02:39:00.050Z,19.63
2023-07-11T02:41:27.073Z,19.62
2023-07-11T02:43:53.885Z,19.56
2023-07-11T02:46:20.908Z,19.56
2023-07-11T02:48:49.301Z,19.48
2023-07-11T02:51:15.846Z,19.46
2023-07-11T02:53:42.362Z,19.45
2023-07-11T02:56:09.039Z,19.45
2023-07-11T02:58:35.774Z,19.47
2023-07-11T03:01:03.441Z,19.44
2023-07-11T03:03:30.045Z,19.41
2023-07-11T03:05:57.224Z,19.38
2023-07-11T03:08:23.920Z,19.41
2023-07-11T03:10:50.722Z,19.39
2023-07-11T03:13:19.057Z,19.37
2023-07-11T03:15:45.673Z,19.35
2023-07-11T03:18:14.772Z,19.31
2023-07-11T03:20:43.099Z,19.32
2023-07-11T03:23:12.122Z,19.27
2023-07-11T03:25:38.848Z,19.23
2023-07-11T03:28:05.592Z,19.19
2023-07-11T03:30:32.886Z,19.18
2023-07-11T03:32:59.386Z,19.22
2023-07-11T03:35:29.020Z,19.19
2023-07-11T03:37:55.616Z,19.18
2023-07-11T03:40:22.155Z,19.17
2023-07-11T03:42:49.037Z,19.16
2023-07-11T03:45:15.762Z,19.14
2023-07-11T03:47:43.497Z,19.12
2023-07-11T03:50:10.836Z,19.10
2023-07-11T03:52:37.382Z,19.11
2023-07-11T03:55:04.122Z,19.10
2023-07-11T03:57:30.662Z,19.07
2023-07-11T03:59:58.269Z,19.11
2023-07-11T04:02:25.295Z,19.10
2023-07-11T04:04:51.816Z,19.11
2023-07-11T04:07:18.322Z,19.08
2023-07-11T04:09:44.889Z,19.10
2023-07-11T04:12:11.738Z,19.09
2023-07-11T04:14:39.690Z,19.09
2023-07-11T04:17:07.449Z,19.11
2023-07-11T04:19:34.049Z,19.10
2023-07-11T04:22:00.505Z,19.09
2023-07-11T04:24:27.545Z,19.08
2023-07-11T04:26:53.997Z,19.09
2023-07-11T04:29:20.534Z,19.09
2023-07-11T04:31:47.056Z,19.07
2023-07-11T04:34:13.553Z,19.11
2023-07-11T04:36:40.030Z,19.06
2023-07-11T04:39:06.625Z,19.10
2023-07-11T04:41:33.153Z,19.07
2023-07-11T04:44:00.660Z,18.97
2023-07-11T04:46:28.256Z,18.94
2023-07-11T04:48:54.758Z,18.94
2023-07-11T04:51:21.225Z,18.96
2023-07-11T04:53:47.778Z,19.03
2023-07-11T04:56:14.573Z,19.04
2023-07-11T04:58:41.341Z,19.10
2023-07-11T05:01:13.541Z,19.16
2023-07-11T05:03:40.601Z,19.28
2023-07-11T05:06:08.790Z,19.35
2023-07-11T05:08:35.768Z,19.40
2023-07-11T05:11:08.249Z,19.43
2023-07-11T05:13:36.584Z,19.42
2023-07-11T05:16:06.673Z,19.49
2023-07-11T05:18:36.186Z,19.61
2023-07-11T05:21:02.640Z,19.71
2023-07-11T05:23:31.368Z,19.76
2023-07-11T05:25:57.996Z,19.82
2023-07-11T05:28:28.288Z,19.83
2023-07-11T05:30:55.413Z,19.81
2023-07-11T05:33:21.857Z,19.87
2023-07-11T05:35:59.092Z,19.93
2023-07-11T05:38:25.728Z,20.01
2023-07-11T05:40:52.540Z,20.00
2023-07-11T05:43:19.006Z,20.09
2023-07-11T05:45:46.139Z,20.13
2023-07-11T05:48:13.503Z,20.19
2023-07-11T05:50:39.987Z,20.22
2023-07-11T05:53:06.893Z,20.27
2023-07-11T05:55:33.357Z,20.28
2023-07-11T05:57:59.875Z,20.29
2023-07-11T06:00:26.577Z,20.34
2023-07-11T06:02:53.146Z,20.35
2023-07-11T06:05:20.186Z,20.40
2023-07-11T06:07:48.387Z,20.46
2023-07-11T06:10:14.985Z,20.56
2023-07-11T06:12:41.494Z,20.60
2023-07-11T06:15:08.354Z,20.65
2023-07-11T06:17:34.920Z,20.73
2023-07-11T06:20:01.673Z,20.85
2023-07-11T06:22:28.202Z,20.93
2023-07-11T06:24:54.831Z,20.98
2023-07-11T06:27:21.332Z,21.05
2023-07-11T06:29:48.048Z,21.12
2023-07-11T06:32:14.619Z,21.07
2023-07-11T06:34:41.144Z,21.21
2023-07-11T06:37:07.649Z,21.27
2023-07-11T06:39:34.112Z,21.35
2023-07-11T06:42:00.571Z,21.45
2023-07-11T06:44:27.056Z,21.56
2023-07-11T06:46:54.072Z,21.64
2023-07-11T06:49:20.570Z,21.72
2023-07-11T06:51:47.104Z,21.75
2023-07-11T06:54:13.579Z,21.79
2023-07-11T06:56:40.128Z,21.86
2023-07-11T06:59:06.610Z,21.91
2023-07-11T07:04:03.980Z,22.05
2023-07-11T07:06:32.226Z,22.12
2023-07-11T07:08:58.698Z,22.20
2023-07-11T07:11:25.214Z,22.30
2023-07-11T07:14:04.749Z,22.37
2023-07-11T07:16:37.116Z,22.47
2023-07-11T07:19:04.954Z,22.53
2023-07-11T07:21:31.782Z,22.57
2023-07-11T07:23:58.510Z,22.71
2023-07-11T07:26:25.146Z,22.79
2023-07-11T07:28:51.932Z,22.88
2023-07-11T07:31:18.512Z,22.99
2023-07-11T07:33:45.070Z,23.07
2023-07-11T07:36:13.072Z,23.17
2023-07-11T07:38:40.580Z,23.28
2023-07-11T07:41:10.064Z,23.41
2023-07-11T07:43:37.599Z,23.57
2023-07-11T07:46:05.451Z,23.73
2023-07-11T07:48:32.104Z,23.88
2023-07-11T07:51:19.011Z,24.06
2023-07-11T07:53:45.623Z,24.16
2023-07-11T07:56:20.510Z,24.24
2023-07-11T07:58:48.111Z,24.41
2023-07-11T08:01:16.243Z,24.55
2023-07-11T08:03:43.177Z,24.76
2023-07-11T08:08:40.593Z,25.26
2023-07-11T08:11:08.500Z,25.55
2023-07-11T08:13:57.045Z,25.82
2023-07-11T08:18:55.352Z,26.20
2023-07-11T08:21:21.917Z,26.34
2023-07-11T08:23:48.374Z,26.57
2023-07-11T08:26:15.045Z,26.81
2023-07-11T08:28:43.001Z,26.96
2023-07-11T08:31:11.393Z,27.13
2023-07-11T08:33:40.497Z,27.20
2023-07-11T08:36:07.010Z,27.32
2023-07-11T08:38:33.491Z,27.55
2023-07-11T08:41:28.692Z,27.62
2023-07-11T08:44:03.938Z,27.80
2023-07-11T08:46:34.449Z,27.96
2023-07-11T08:49:01.878Z,28.43
2023-07-11T08:51:34.387Z,28.65
2023-07-11T08:54:08.022Z,28.71
2023-07-11T08:56:42.065Z,29.02
2023-07-11T08:59:17.238Z,28.92
2023-07-11T09:02:03.749Z,29.18
2023-07-11T09:04:31.409Z,29.47
2023-07-11T09:07:07.528Z,29.82
2023-07-11T09:09:35.217Z,30.14
2023-07-11T09:12:21.197Z,30.26
2023-07-11T09:15:02.896Z,30.18
2023-07-11T09:18:07.830Z,29.77
2023-07-11T09:20:44.116Z,29.86
2023-07-11T09:23:40.130Z,30.05
2023-07-11T09:26:11.314Z,30.22
2023-07-11T09:28:39.362Z,30.31
2023-07-11T09:31:15.074Z,30.18
2023-07-11T09:33:45.418Z,30.14
2023-07-11T09:36:35.294Z,30.24
2023-07-11T09:39:25.380Z,30.40
2023-07-11T09:42:10.443Z,30.89
2023-07-11T09:44:38.180Z,31.20
2023-07-11T09:47:18.241Z,31.18
2023-07-11T09:49:46.181Z,31.05
2023-07-11T09:52:27.221Z,31.33
2023-07-11T09:55:07.194Z,31.39
2023-07-11T09:57:35.189Z,31.09
2023-07-11T10:00:20.876Z,30.52
2023-07-11T10:02:49.197Z,30.47
2023-07-11T10:05:22.330Z,30.40
2023-07-11T10:08:14.848Z,30.52
2023-07-11T10:10:52.608Z,30.83
2023-07-11T10:13:26.531Z,31.12
2023-07-11T10:16:00.164Z,31.45
2023-07-11T10:18:32.282Z,31.57
2023-07-11T10:21:07.453Z,31.48
2023-07-11T10:23:36.462Z,31.61
2023-07-11T10:26:21.373Z,31.68
2023-07-11T10:29:19.709Z,31.58
2023-07-11T10:32:01.305Z,31.95
2023-07-11T10:34:48.782Z,32.21
2023-07-11T10:37:40.657Z,31.92
2023-07-11T10:40:25.527Z,32.10
2023-07-11T10:43:18.527Z,32.25
2023-07-11T10:45:46.922Z,32.06
2023-07-11T10:48:23.232Z,32.24
2023-07-11T10:51:05.199Z,32.24
2023-07-11T10:53:45.155Z,32.36
2023-07-11T10:56:24.768Z,32.22
2023-07-11T10:58:51.813Z,32.36
2023-07-11T11:01:30.438Z,32.22
2023-07-11T11:04:44.803Z,32.19
2023-07-11T11:07:32.229Z,32.23
2023-07-11T11:10:11.139Z,32.19
2023-07-11T11:13:12.968Z,32.16
2023-07-11T11:15:43.833Z,32.25
2023-07-11T11:18:20.789Z,32.29
2023-07-11T11:21:19.659Z,32.28
2023-07-11T11:24:05.985Z,32.07
2023-07-11T11:26:42.165Z,32.24
2023-07-11T11:29:30.536Z,32.30
2023-07-11T11:32:17.165Z,32.34
2023-07-11T11:35:04.048Z,32.15
2023-07-11T11:37:53.727Z,32.19
2023-07-11T11:40:23.074Z,32.20
2023-07-11T11:43:02.468Z,32.16
2023-07-11T11:45:58.622Z,32.03
2023-07-11T11:50:57.730Z,32.11
2023-07-11T11:53:47.667Z,31.85
2023-07-11T11:56:23.117Z,31.68
2023-07-11T11:58:59.891Z,31.69
2023-07-11T12:01:35.921Z,31.83
2023-07-11T12:04:08.679Z,32.13
2023-07-11T12:06:36.127Z,32.24
2023-07-11T12:09:18.239Z,32.46
2023-07-11T12:12:06.208Z,32.37
2023-07-11T12:14:44.339Z,32.25
2023-07-11T12:17:33.066Z,32.08
2023-07-11T12:20:03.049Z,31.94
2023-07-11T12:22:38.519Z,31.92
2023-07-11T12:25:07.927Z,31.59
2023-07-11T12:27:34.591Z,31.56
2023-07-11T12:30:14.319Z,31.46
2023-07-11T12:32:47.144Z,31.53
2023-07-11T12:35:17.620Z,31.71
2023-07-11T12:38:00.443Z,31.78
2023-07-11T12:41:04.473Z,32.03
2023-07-11T12:43:34.357Z,31.96
2023-07-11T12:46:24.005Z,31.89
2023-07-11T12:48:51.416Z,31.76
2023-07-11T12:51:35.721Z,31.95
2023-07-11T12:54:06.781Z,32.12
2023-07-11T12:56:33.233Z,32.12
2023-07-11T12:58:59.743Z,32.08
2023-07-11T13:01:26.592Z,32.01
2023-07-11T13:03:53.098Z,31.97
2023-07-11T13:06:27.862Z,31.81
2023-07-11T13:08:56.832Z,31.89
2023-07-11T13:11:28.537Z,31.84
2023-07-11T13:13:55.722Z,31.89
2023-07-11T13:16:25.841Z,31.79
2023-07-11T13:18:53.405Z,31.79
2023-07-11T13:21:20.745Z,31.73
2023-07-11T13:23:47.473Z,31.53
2023-07-11T13:26:21.297Z,31.43
2023-07-11T13:29:02.355Z,31.44
2023-07-11T13:31:32.244Z,31.39
2023-07-11T13:34:04.027Z,31.47
2023-07-11T13:39:04.408Z,31.78
2023-07-11T13:41:40.572Z,31.78
2023-07-11T13:44:16.953Z,31.93
2023-07-11T13:46:44.630Z,31.98
2023-07-11T13:49:20.232Z,31.86
2023-07-11T13:51:47.212Z,31.86
2023-07-11T13:54:24.852Z,31.82
2023-07-11T13:56:51.413Z,31.83
2023-07-11T13:59:18.530Z,31.76
2023-07-11T14:01:46.085Z,31.97
2023-07-11T14:04:21.276Z,32.03
2023-07-11T14:06:48.093Z,32.00
2023-07-11T14:09:15.180Z,31.86
2023-07-11T14:11:48.183Z,31.65
2023-07-11T14:14:33.109Z,31.79
2023-07-11T14:17:04.189Z,31.94
2023-07-11T14:19:34.515Z,31.68
2023-07-11T14:22:03.644Z,31.58
2023-07-11T14:24:30.194Z,31.46
2023-07-11T14:26:56.709Z,31.50
2023-07-11T14:29:26.470Z,31.45
2023-07-11T14:31:54.134Z,31.45
2023-07-11T14:34:28.043Z,31.45
2023-07-11T14:36:55.233Z,31.37
2023-07-11T14:39:22.228Z,31.21
2023-07-11T14:41:50.501Z,31.15
2023-07-11T14:44:27.117Z,31.13
2023-07-11T14:46:54.238Z,31.16
2023-07-11T14:49:21.430Z,31.32
2023-07-11T14:51:49.100Z,31.18
2023-07-11T14:54:21.555Z,30.94
2023-07-11T14:59:29.439Z,30.68
2023-07-11T15:02:03.587Z,30.48
2023-07-11T15:17:25.959Z,30.22
2023-07-11T15:19:52.641Z,30.05
2023-07-11T15:22:21.852Z,29.89
2023-07-11T15:24:56.830Z,29.79
2023-07-11T15:27:23.732Z,29.86
2023-07-11T15:29:50.181Z,29.86
2023-07-11T15:32:21.590Z,29.86
2023-07-11T15:34:48.547Z,29.87
2023-07-11T15:37:15.859Z,29.92
2023-07-11T15:39:43.911Z,29.82
2023-07-11T15:42:24.736Z,29.73
2023-07-11T15:44:53.541Z,29.68
2023-07-11T15:47:20.463Z,29.68
2023-07-11T15:49:47.687Z,29.67
2023-07-11T15:52:14.752Z,29.64
2023-07-11T15:54:41.694Z,29.67
2023-07-11T15:57:26.475Z,29.71
2023-07-11T15:59:53.030Z,29.69
2023-07-11T16:02:22.278Z,29.66
2023-07-11T16:04:48.776Z,29.73
2023-07-11T16:07:16.668Z,29.79
2023-07-11T16:09:43.175Z,29.78
2023-07-11T16:12:12.912Z,29.74
2023-07-11T16:14:40.111Z,29.71
2023-07-11T16:17:18.975Z,29.74
2023-07-11T16:19:52.032Z,29.80
2023-07-11T16:22:21.553Z,29.67
2023-07-11T16:24:48.265Z,29.54
2023-07-11T16:27:18.341Z,29.40
2023-07-11T16:29:46.362Z,29.40
2023-07-11T16:32:14.552Z,29.31
2023-07-11T16:34:41.715Z,29.19
2023-07-11T16:37:19.877Z,29.05
2023-07-11T16:39:47.865Z,28.93
2023-07-11T16:42:22.817Z,28.83
2023-07-11T16:44:49.708Z,28.83
2023-07-11T16:47:17.153Z,28.84
2023-07-11T16:49:49.182Z,28.97
2023-07-11T16:52:15.871Z,29.03
2023-07-11T16:54:42.347Z,29.04
2023-07-11T16:57:19.177Z,28.96
2023-07-11T16:59:46.328Z,28.99
2023-07-11T17:02:21.870Z,28.82
2023-07-11T17:04:52.537Z,28.74
2023-07-11T17:07:19.411Z,28.71
2023-07-11T17:09:45.916Z,28.67
2023-07-11T17:12:13.313Z,28.76
2023-07-11T17:14:40.337Z,28.92
2023-07-11T17:17:16.021Z,29.05
2023-07-11T17:19:42.535Z,29.03
2023-07-11T17:22:13.681Z,29.08
2023-07-11T17:24:40.061Z,29.13
2023-07-11T17:27:13.559Z,29.16
2023-07-11T17:29:40.096Z,28.96
2023-07-11T17:32:11.782Z,28.84
2023-07-11T17:34:38.515Z,28.68
2023-07-11T17:37:12.381Z,28.41
2023-07-11T17:39:39.227Z,28.28
2023-07-11T17:42:08.777Z,28.21
2023-07-11T17:49:52.569Z,28.15
2023-07-11T17:52:23.676Z,28.10
2023-07-11T17:54:50.149Z,28.09
2023-07-11T17:57:19.241Z,28.03
2023-07-11T17:59:45.827Z,28.07
2023-07-11T18:02:26.985Z,28.08
2023-07-11T18:04:57.757Z,28.04
2023-07-11T18:07:27.181Z,28.05
2023-07-11T18:09:53.781Z,28.06
2023-07-11T18:12:27.920Z,28.01
2023-07-11T18:14:54.689Z,27.98
2023-07-11T18:17:27.759Z,27.94
2023-07-11T18:19:54.612Z,27.81
2023-07-11T18:22:23.844Z,27.79
2023-07-11T18:24:51.328Z,27.61
2023-07-11T18:27:27.444Z,27.32
2023-07-11T18:29:56.046Z,27.21
2023-07-11T18:32:23.441Z,27.18
2023-07-11T18:34:52.743Z,27.15
2023-07-11T18:37:19.606Z,27.10
2023-07-11T18:39:48.887Z,27.02
2023-07-11T18:42:21.208Z,26.96
2023-07-11T18:44:50.597Z,26.91
2023-07-11T18:47:30.469Z,26.94
2023-07-11T18:49:57.008Z,26.81
2023-07-11T18:52:25.114Z,26.73
2023-07-11T18:54:53.126Z,26.61
2023-07-11T18:57:21.535Z,26.46
2023-07-11T18:59:48.888Z,26.24
2023-07-11T19:02:16.791Z,26.19
2023-07-11T19:04:44.672Z,26.09
2023-07-11T19:07:14.184Z,26.01
2023-07-11T19:09:45.171Z,26.01
2023-07-11T19:12:35.838Z,25.97
2023-07-11T19:15:06.362Z,25.90
2023-07-11T19:17:38.643Z,25.87
2023-07-11T19:20:17.324Z,25.70
2023-07-11T19:22:45.283Z,25.57
2023-07-11T19:25:17.278Z,25.53
2023-07-11T19:27:46.297Z,25.46
2023-07-11T19:30:17.437Z,25.49
2023-07-11T19:32:45.968Z,25.38
2023-07-11T19:35:13.654Z,25.32
2023-07-11T19:37:46.390Z,25.28
2023-07-11T19:40:18.089Z,25.16
2023-07-11T19:42:44.806Z,25.09
2023-07-11T19:45:13.591Z,25.05
2023-07-11T19:47:40.094Z,24.96
2023-07-11T19:50:18.427Z,24.95
2023-07-11T19:52:44.912Z,24.90
2023-07-11T19:55:11.400Z,24.84
2023-07-11T19:57:37.979Z,24.78
2023-07-11T20:00:21.773Z,24.72
2023-07-11T20:02:49.282Z,24.71
2023-07-11T20:05:16.459Z,24.60
2023-07-11T20:07:43.161Z,24.56
2023-07-11T20:10:37.754Z,24.48
2023-07-11T20:13:06.532Z,24.36
2023-07-11T20:15:35.002Z,24.27
2023-07-11T20:18:01.572Z,24.15
2023-07-11T20:20:31.687Z,24.08
2023-07-11T20:22:58.400Z,24.09
2023-07-11T20:25:25.391Z,24.03
2023-07-11T20:27:55.132Z,23.96
2023-07-11T20:30:29.007Z,23.90
2023-07-11T20:32:55.515Z,23.83
2023-07-11T20:35:22.033Z,23.80
2023-07-11T20:37:48.788Z,23.79
2023-07-11T20:40:24.314Z,23.78
2023-07-11T20:42:51.266Z,23.78
2023-07-11T20:45:19.956Z,23.74
2023-07-11T20:47:47.142Z,23.71
2023-07-11T20:50:40.035Z,23.71
2023-07-11T20:53:07.493Z,23.69
2023-07-11T20:55:36.914Z,23.61
2023-07-11T20:58:11.008Z,23.64
2023-07-11T21:00:39.805Z,23.55
2023-07-11T21:03:06.356Z,23.48
2023-07-11T21:05:35.950Z,23.43
2023-07-11T21:08:02.941Z,23.41
2023-07-11T21:10:41.326Z,23.41
2023-07-11T21:13:12.534Z,23.33
2023-07-11T21:15:40.037Z,23.33
2023-07-11T21:18:09.815Z,23.32
2023-07-11T21:20:41.399Z,23.25
2023-07-11T21:23:08.319Z,23.28
2023-07-11T21:25:36.572Z,23.26
2023-07-11T21:28:06.572Z,23.27
2023-07-11T21:30:41.865Z,23.24
2023-07-11T21:33:11.032Z,23.26
2023-07-11T21:35:38.548Z,23.15
2023-07-11T21:38:05.977Z,23.14
2023-07-11T21:40:36.287Z,23.06
2023-07-11T21:43:04.093Z,23.08
2023-07-11T21:45:36.478Z,23.00
2023-07-11T21:48:04.175Z,22.93
2023-07-11T21:50:45.250Z,22.82
2023-07-11T21:53:13.647Z,22.87
2023-07-11T21:55:42.429Z,22.88
2023-07-11T21:58:17.727Z,22.92
2023-07-11T22:00:45.004Z,22.85
2023-07-11T22:03:16.373Z,22.86
2023-07-11T22:05:43.381Z,22.91
2023-07-11T22:08:13.193Z,22.93
2023-07-11T22:10:39.755Z,22.96
2023-07-11T22:13:06.724Z,22.95
2023-07-11T22:15:33.288Z,22.92
2023-07-11T22:18:00.874Z,22.90
2023-07-11T22:20:38.829Z,22.83
2023-07-11T22:23:06.248Z,22.82
2023-07-11T22:25:33.176Z,22.78
2023-07-11T22:27:59.826Z,22.78
2023-07-11T22:30:29.208Z,22.71
2023-07-11T22:32:57.089Z,22.65
2023-07-11T22:35:26.682Z,22.64
2023-07-11T22:37:54.840Z,22.62
2023-07-11T22:40:34.671Z,22.59
2023-07-11T22:43:18.579Z,22.55
2023-07-11T22:45:46.739Z,22.47
2023-07-11T22:48:14.638Z,22.42
2023-07-11T22:50:49.354Z,22.41
2023-07-11T22:53:22.242Z,22.33
2023-07-11T22:55:56.953Z,22.28
2023-07-11T22:58:26.932Z,22.23
2023-07-11T23:00:55.310Z,22.20
2023-07-11T23:03:22.587Z,22.14
2023-07-11T23:05:49.571Z,22.07
2023-07-11T23:08:24.925Z,22.01
2023-07-11T23:10:51.468Z,21.88
2023-07-11T23:13:18.279Z,21.82
2023-07-11T23:15:51.901Z,21.78
2023-07-11T23:18:20.947Z,21.75
2023-07-11T23:20:53.420Z,21.69
2023-07-11T23:23:24.954Z,21.69
2023-07-11T23:25:52.485Z,21.73
2023-07-11T23:28:27.833Z,21.72
2023-07-11T23:30:56.375Z,21.75
2023-07-11T23:33:24.836Z,21.72
2023-07-11T23:35:52.849Z,21.70
2023-07-11T23:38:19.267Z,21.71
2023-07-11T23:40:47.933Z,21.67
2023-07-11T23:43:22.059Z,21.64
2023-07-11T23:45:51.287Z,21.60
2023-07-11T23:48:17.929Z,21.64
2023-07-11T23:50:46.772Z,21.63
2023-07-11T23:53:13.240Z,21.62
2023-07-11T23:55:39.738Z,21.62
2023-07-11T23:58:14.197Z,21.59
